createdAt,value
2018-05-10T00:00:23.863Z,10.00
2018-05-10T00:02:51.141Z,10.00
2018-05-10T00:05:17.611Z,10.00
2018-05-10T00:07:44.026Z,9.90
2018-05-10T00:10:10.323Z,9.90
2018-05-10T00:12:36.680Z,9.90
2018-05-10T00:15:03.174Z,9.80
2018-05-10T00:17:30.398Z,9.80
2018-05-10T00:19:56.756Z,9.80
2018-05-10T00:22:23.943Z,9.80
2018-05-10T00:24:50.327Z,9.80
2018-05-10T00:27:17.493Z,9.70
2018-05-10T00:29:43.870Z,9.70
2018-05-10T00:32:10.368Z,9.60
2018-05-10T00:34:36.756Z,9.60
2018-05-10T00:37:04.651Z,9.50
2018-05-10T00:39:31.763Z,9.50
2018-05-10T00:41:58.161Z,9.50
2018-05-10T00:44:24.513Z,9.50
2018-05-10T00:46:50.902Z,9.50
2018-05-10T00:49:17.437Z,9.50
2018-05-10T00:51:44.002Z,9.40
2018-05-10T00:54:22.518Z,9.40
2018-05-10T00:56:48.904Z,9.30
2018-05-10T00:59:15.983Z,9.30
2018-05-10T01:01:42.439Z,9.30
2018-05-10T01:04:08.914Z,9.30
2018-05-10T01:06:36.040Z,9.30
2018-05-10T01:09:02.437Z,9.30
2018-05-10T01:11:28.870Z,9.20
2018-05-10T01:13:55.582Z,9.20
2018-05-10T01:16:22.114Z,9.10
2018-05-10T01:18:48.747Z,9.10
2018-05-10T01:21:16.073Z,9.10
2018-05-10T01:23:42.638Z,9.00
2018-05-10T01:26:09.137Z,9.00
2018-05-10T01:28:36.234Z,8.90
2018-05-10T01:31:02.662Z,8.90
2018-05-10T01:33:29.009Z,8.90
2018-05-10T01:36:07.752Z,8.80
2018-05-10T01:38:34.136Z,8.80
2018-05-10T01:41:00.619Z,8.80
2018-05-10T01:43:26.953Z,8.80
2018-05-10T01:45:53.406Z,8.80
2018-05-10T01:48:19.799Z,8.80
2018-05-10T01:50:46.128Z,8.70
2018-05-10T01:53:12.498Z,8.70
2018-05-10T01:55:39.568Z,8.80
2018-05-10T01:58:06.676Z,8.70
2018-05-10T02:00:33.041Z,8.70
2018-05-10T02:03:00.040Z,8.70
2018-05-10T02:05:26.503Z,8.80
2018-05-10T02:07:53.750Z,8.70
2018-05-10T02:10:20.173Z,8.70
2018-05-10T02:12:46.557Z,8.70
2018-05-10T02:15:12.894Z,8.80
2018-05-10T02:17:39.304Z,8.80
2018-05-10T02:20:05.701Z,8.70
2018-05-10T02:22:32.156Z,8.70
2018-05-10T02:24:59.276Z,8.60
2018-05-10T02:27:25.628Z,8.60
2018-05-10T02:29:52.701Z,8.60
2018-05-10T02:32:19.083Z,8.50
2018-05-10T02:34:45.470Z,8.50
2018-05-10T02:37:11.743Z,8.50
2018-05-10T02:39:38.323Z,8.50
2018-05-10T02:42:04.740Z,8.40
2018-05-10T02:44:31.878Z,8.40
2018-05-10T02:46:58.987Z,8.30
2018-05-10T02:49:25.355Z,8.30
2018-05-10T02:51:52.537Z,8.30
2018-05-10T02:54:18.932Z,8.30
2018-05-10T02:56:45.377Z,8.20
2018-05-10T02:59:11.866Z,8.20
2018-05-10T03:01:38.403Z,8.10
2018-05-10T03:04:04.740Z,8.10
2018-05-10T03:06:31.103Z,8.10
2018-05-10T03:08:58.194Z,8.00
2018-05-10T03:11:24.539Z,8.00
2018-05-10T03:13:51.517Z,8.00
2018-05-10T03:16:17.869Z,7.90
2018-05-10T03:18:44.329Z,7.90
2018-05-10T03:21:10.876Z,7.90
2018-05-10T03:23:37.308Z,7.80
2018-05-10T03:26:03.857Z,7.80
2018-05-10T03:28:30.405Z,7.70
2018-05-10T03:30:56.757Z,7.70
2018-05-10T03:33:23.848Z,7.70
2018-05-10T03:35:50.341Z,7.70
2018-05-10T03:38:16.725Z,7.70
2018-05-10T03:40:43.119Z,7.70
2018-05-10T03:43:09.609Z,7.70
2018-05-10T03:45:36.053Z,7.70
2018-05-10T03:48:03.473Z,7.70
2018-05-10T03:50:30.022Z,7.70
2018-05-10T03:52:58.693Z,7.70
2018-05-10T03:55:25.073Z,7.70
2018-05-10T03:57:51.506Z,7.70
2018-05-10T04:00:17.931Z,7.70
2018-05-10T04:05:56.635Z,7.70
2018-05-10T04:08:35.447Z,7.70
2018-05-10T04:11:14.107Z,7.70
2018-05-10T04:13:41.272Z,7.70
2018-05-10T04:16:07.747Z,7.70
2018-05-10T04:18:34.248Z,7.70
2018-05-10T04:21:00.721Z,7.70
2018-05-10T04:23:27.154Z,7.70
2018-05-10T04:25:53.543Z,7.70
2018-05-10T04:28:20.024Z,7.80
2018-05-10T04:30:46.542Z,7.80
2018-05-10T04:33:14.113Z,7.80
2018-05-10T04:35:40.570Z,7.80
2018-05-10T04:38:06.861Z,7.90
2018-05-10T04:40:33.435Z,7.90
2018-05-10T04:43:01.201Z,8.00
2018-05-10T04:45:27.646Z,8.00
2018-05-10T04:47:54.001Z,8.10
2018-05-10T04:50:20.436Z,8.20
2018-05-10T04:52:46.834Z,8.20
2018-05-10T04:55:13.985Z,8.40
2018-05-10T04:57:41.123Z,8.50
2018-05-10T05:00:08.254Z,8.70
2018-05-10T05:02:34.656Z,8.60
2018-05-10T05:05:01.011Z,8.70
2018-05-10T05:07:27.353Z,8.80
2018-05-10T05:09:53.709Z,8.80
2018-05-10T05:12:20.181Z,8.90
2018-05-10T05:14:46.937Z,9.00
2018-05-10T05:17:14.820Z,9.10
2018-05-10T05:19:41.395Z,9.10
2018-05-10T05:22:07.953Z,9.20
2018-05-10T05:24:34.611Z,9.20
2018-05-10T05:27:01.188Z,9.30
2018-05-10T05:29:27.522Z,9.50
2018-05-10T05:31:53.976Z,9.60
2018-05-10T05:34:20.275Z,9.90
2018-05-10T05:36:47.325Z,10.50
2018-05-10T05:39:13.838Z,10.50
2018-05-10T05:41:41.005Z,11.50
2018-05-10T05:44:08.209Z,12.10
2018-05-10T05:46:35.189Z,12.10
2018-05-10T05:49:02.337Z,12.70
2018-05-10T05:51:29.510Z,13.00
2018-05-10T05:53:56.044Z,12.90
2018-05-10T05:56:22.613Z,13.00
2018-05-10T05:58:49.151Z,13.00
2018-05-10T06:01:15.754Z,13.10
2018-05-10T06:03:42.019Z,13.10
2018-05-10T06:06:08.387Z,13.30
2018-05-10T06:08:35.579Z,14.30
2018-05-10T06:11:02.021Z,14.30
2018-05-10T06:13:28.547Z,15.20
2018-05-10T06:15:55.345Z,16.10
2018-05-10T06:18:21.834Z,16.80
2018-05-10T06:20:48.426Z,17.40
2018-05-10T06:23:14.843Z,17.90
2018-05-10T06:25:42.258Z,18.30
2018-05-10T06:28:08.917Z,18.30
2018-05-10T06:30:35.411Z,18.60
2018-05-10T06:33:02.343Z,19.00
2018-05-10T06:35:28.784Z,19.50
2018-05-10T06:37:55.432Z,20.00
2018-05-10T06:40:21.943Z,20.40
2018-05-10T06:42:48.340Z,20.70
2018-05-10T06:45:15.488Z,21.10
2018-05-10T06:47:41.780Z,21.10
2018-05-10T06:50:08.261Z,21.20
2018-05-10T06:52:34.675Z,21.20
2018-05-10T06:55:01.005Z,21.40
2018-05-10T06:57:27.562Z,21.50
2018-05-10T06:59:54.062Z,21.70
2018-05-10T07:02:20.584Z,22.10
2018-05-10T07:04:47.079Z,22.10
2018-05-10T07:07:13.486Z,22.00
2018-05-10T07:09:40.635Z,21.10
2018-05-10T07:12:06.949Z,21.00
2018-05-10T07:14:33.815Z,20.70
2018-05-10T07:17:00.948Z,20.20
2018-05-10T07:19:27.353Z,20.20
2018-05-10T07:21:53.822Z,20.20
2018-05-10T07:24:20.911Z,20.40
2018-05-10T07:26:47.774Z,20.30
2018-05-10T07:29:14.204Z,20.50
2018-05-10T07:31:40.560Z,20.60
2018-05-10T07:34:06.949Z,20.70
2018-05-10T07:36:33.927Z,20.90
2018-05-10T07:39:00.399Z,21.00
2018-05-10T07:41:27.008Z,21.10
2018-05-10T07:43:53.424Z,21.30
2018-05-10T07:46:21.294Z,21.40
2018-05-10T07:48:47.878Z,21.40
2018-05-10T07:51:14.242Z,21.50
2018-05-10T07:53:40.655Z,21.50
2018-05-10T07:56:07.254Z,21.60
2018-05-10T07:58:34.484Z,21.70
2018-05-10T08:01:01.165Z,21.70
2018-05-10T08:03:27.554Z,21.80
2018-05-10T08:05:53.967Z,21.90
2018-05-10T08:08:20.397Z,22.00
2018-05-10T08:10:48.367Z,22.00
2018-05-10T08:13:14.895Z,22.00
2018-05-10T08:15:41.253Z,22.10
2018-05-10T08:18:07.670Z,22.20
2018-05-10T08:20:34.149Z,22.20
2018-05-10T08:23:00.610Z,22.10
2018-05-10T08:25:26.944Z,22.10
2018-05-10T08:27:53.630Z,22.10
2018-05-10T08:30:20.812Z,22.20
2018-05-10T08:32:47.868Z,22.30
2018-05-10T08:35:14.430Z,22.30
2018-05-10T08:37:40.818Z,22.40
2018-05-10T08:40:07.317Z,22.50
2018-05-10T08:42:34.489Z,22.80
2018-05-10T08:45:00.922Z,22.80
2018-05-10T08:47:27.230Z,22.90
2018-05-10T08:49:54.330Z,23.00
2018-05-10T08:52:20.857Z,23.00
2018-05-10T08:54:47.590Z,23.00
2018-05-10T08:57:14.053Z,23.00
2018-05-10T08:59:40.852Z,23.10
2018-05-10T09:02:07.330Z,23.30
2018-05-10T09:04:33.688Z,23.40
2018-05-10T09:07:00.011Z,23.50
2018-05-10T09:09:26.425Z,23.70
2018-05-10T09:11:52.966Z,23.90
2018-05-10T09:14:19.915Z,24.10
2018-05-10T09:16:46.287Z,24.30
2018-05-10T09:19:12.789Z,24.20
2018-05-10T09:21:39.338Z,24.20
2018-05-10T09:24:06.579Z,24.20
2018-05-10T09:26:34.481Z,24.20
2018-05-10T09:29:00.954Z,24.10
2018-05-10T09:31:27.369Z,24.30
2018-05-10T09:33:53.695Z,24.40
2018-05-10T09:36:20.192Z,24.40
2018-05-10T09:38:47.261Z,24.50
2018-05-10T09:41:13.846Z,24.40
2018-05-10T09:43:40.265Z,24.70
2018-05-10T09:46:07.830Z,25.00
2018-05-10T09:48:34.262Z,25.40
2018-05-10T09:51:00.751Z,25.80
2018-05-10T09:53:27.096Z,26.00
2018-05-10T09:55:53.792Z,25.90
2018-05-10T09:58:20.302Z,25.70
2018-05-10T10:00:46.703Z,25.80
2018-05-10T10:03:13.632Z,25.90
2018-05-10T10:05:40.139Z,26.10
2018-05-10T10:08:07.272Z,25.70
2018-05-10T10:10:33.845Z,25.70
2018-05-10T10:13:00.194Z,25.60
2018-05-10T10:15:27.117Z,25.30
2018-05-10T10:17:53.629Z,25.20
2018-05-10T10:20:20.764Z,24.90
2018-05-10T10:22:47.177Z,24.90
2018-05-10T10:25:13.660Z,24.70
2018-05-10T10:27:40.769Z,24.80
2018-05-10T10:30:07.169Z,24.90
2018-05-10T10:32:33.577Z,25.00
2018-05-10T10:34:59.980Z,24.90
2018-05-10T10:37:27.305Z,24.80
2018-05-10T10:39:53.680Z,24.70
2018-05-10T10:42:20.920Z,24.60
2018-05-10T10:44:48.000Z,24.60
2018-05-10T10:47:14.370Z,24.60
2018-05-10T10:49:40.835Z,24.60
2018-05-10T10:52:08.380Z,24.10
2018-05-10T10:54:35.001Z,24.10
2018-05-10T10:57:01.846Z,24.10
2018-05-10T10:59:28.278Z,24.10
2018-05-10T11:01:54.912Z,24.10
2018-05-10T11:04:21.444Z,24.10
2018-05-10T11:06:47.916Z,24.20
2018-05-10T11:09:15.052Z,24.60
2018-05-10T11:11:41.694Z,24.60
2018-05-10T11:14:09.478Z,24.80
2018-05-10T11:16:36.172Z,24.80
2018-05-10T11:19:02.810Z,24.80
2018-05-10T11:21:29.339Z,25.00
2018-05-10T11:23:55.732Z,24.90
2018-05-10T11:26:22.123Z,24.70
2018-05-10T11:28:48.731Z,24.70
2018-05-10T11:31:15.202Z,24.60
2018-05-10T11:33:42.210Z,24.30
2018-05-10T11:36:08.632Z,24.30
2018-05-10T11:38:35.802Z,24.00
2018-05-10T11:41:02.259Z,24.00
2018-05-10T11:43:29.392Z,24.00
2018-05-10T11:45:55.791Z,24.00
2018-05-10T11:48:22.146Z,24.10
2018-05-10T11:50:48.573Z,24.40
2018-05-10T11:53:15.800Z,24.50
2018-05-10T11:55:42.255Z,24.60
2018-05-10T11:58:08.822Z,24.50
2018-05-10T12:00:36.196Z,24.30
2018-05-10T12:03:03.617Z,24.30
2018-05-10T12:05:29.980Z,24.30
2018-05-10T12:07:57.069Z,24.30
2018-05-10T12:10:23.824Z,24.30
2018-05-10T12:12:50.169Z,24.40
2018-05-10T12:15:16.603Z,24.60
2018-05-10T12:17:43.060Z,24.70
2018-05-10T12:20:10.211Z,24.70
2018-05-10T12:22:36.520Z,24.70
2018-05-10T12:25:03.826Z,24.60
2018-05-10T12:27:30.233Z,24.60
2018-05-10T12:29:57.130Z,24.80
2018-05-10T12:32:23.743Z,24.90
2018-05-10T12:34:50.279Z,24.70
2018-05-10T12:37:16.759Z,24.60
2018-05-10T12:39:43.877Z,24.50
2018-05-10T12:42:10.287Z,24.50
2018-05-10T12:44:36.887Z,24.50
2018-05-10T12:47:04.198Z,24.30
2018-05-10T12:49:30.571Z,24.20
2018-05-10T12:51:57.818Z,24.10
2018-05-10T12:54:24.247Z,24.10
2018-05-10T12:56:51.443Z,23.10
2018-05-10T12:59:17.970Z,23.10
2018-05-10T13:01:44.391Z,22.40
2018-05-10T13:04:10.700Z,21.70
2018-05-10T13:06:37.764Z,20.80
2018-05-10T13:09:04.149Z,20.70
2018-05-10T13:11:30.468Z,20.40
2018-05-10T13:13:57.038Z,20.10
2018-05-10T13:16:24.176Z,19.60
2018-05-10T13:18:50.648Z,19.60
2018-05-10T13:21:17.039Z,19.50
2018-05-10T13:23:44.176Z,19.40
2018-05-10T13:26:10.722Z,19.40
2018-05-10T13:28:38.232Z,19.70
2018-05-10T13:31:04.819Z,19.70
2018-05-10T13:33:31.333Z,19.80
2018-05-10T13:35:57.704Z,20.00
2018-05-10T13:38:24.206Z,20.00
2018-05-10T13:40:50.548Z,20.20
2018-05-10T13:43:16.891Z,20.30
2018-05-10T13:45:43.249Z,20.40
2018-05-10T13:48:09.567Z,20.40
2018-05-10T13:50:36.965Z,20.50
2018-05-10T13:53:03.294Z,20.50
2018-05-10T13:55:29.656Z,20.50
2018-05-10T13:57:56.170Z,20.50
2018-05-10T14:00:22.528Z,20.50
2018-05-10T14:02:49.671Z,20.40
2018-05-10T14:05:16.129Z,20.30
2018-05-10T14:07:42.540Z,20.40
2018-05-10T14:10:08.848Z,20.40
2018-05-10T14:12:35.203Z,20.30
2018-05-10T14:15:02.325Z,20.00
2018-05-10T14:17:29.060Z,20.00
2018-05-10T14:19:55.355Z,19.80
2018-05-10T14:22:21.821Z,19.80
2018-05-10T14:24:48.155Z,19.70
2018-05-10T14:27:14.581Z,19.60
2018-05-10T14:29:40.969Z,19.40
2018-05-10T14:32:07.478Z,19.20
2018-05-10T14:34:34.521Z,18.90
2018-05-10T14:37:00.973Z,18.90
2018-05-10T14:39:28.195Z,18.50
2018-05-10T14:41:54.721Z,18.40
2018-05-10T14:44:21.119Z,18.20
2018-05-10T14:46:47.643Z,17.90
2018-05-10T14:49:14.155Z,17.60
2018-05-10T14:51:41.469Z,17.00
2018-05-10T14:56:58.385Z,16.90
2018-05-10T14:59:25.003Z,16.80
2018-05-10T15:01:51.474Z,16.70
2018-05-10T15:04:18.719Z,16.30
2018-05-10T15:06:45.433Z,16.30
2018-05-10T15:09:13.958Z,16.10
2018-05-10T15:14:33.157Z,15.70
2018-05-10T15:17:02.348Z,15.60
2018-05-10T15:19:29.751Z,15.50
2018-05-10T15:21:56.946Z,15.50
2018-05-10T15:24:24.391Z,15.50
2018-05-10T15:26:50.864Z,15.40
2018-05-10T15:29:17.249Z,15.40
2018-05-10T15:43:12.246Z,15.10
2018-05-10T15:45:38.609Z,15.00
2018-05-10T15:48:05.980Z,14.90
2018-05-10T15:50:32.430Z,14.70
2018-05-10T15:52:58.987Z,14.60
2018-05-10T15:55:25.446Z,14.50
2018-05-10T15:57:52.032Z,14.30
2018-05-10T16:00:18.909Z,14.20
2018-05-10T16:02:45.284Z,14.00
2018-05-10T16:05:11.664Z,13.90
2018-05-10T16:07:38.254Z,13.60
2018-05-10T16:10:04.636Z,13.50
2018-05-10T16:12:31.115Z,13.40
2018-05-10T16:14:57.738Z,13.30
2018-05-10T16:17:24.066Z,13.30
2018-05-10T16:19:50.432Z,13.20
2018-05-10T16:22:16.813Z,13.20
2018-05-10T16:24:43.963Z,13.20
2018-05-10T16:27:11.385Z,13.10
2018-05-10T16:29:37.865Z,13.10
2018-05-10T16:32:04.381Z,13.10
2018-05-10T16:34:31.691Z,13.10
2018-05-10T16:36:58.129Z,13.10
2018-05-10T16:39:24.662Z,13.10
2018-05-10T16:41:51.002Z,13.00
2018-05-10T16:44:17.470Z,13.10
2018-05-10T16:46:43.989Z,13.20
2018-05-10T16:49:11.308Z,13.30
2018-05-10T16:51:37.701Z,13.20
2018-05-10T16:54:04.031Z,13.30
2018-05-10T16:56:30.447Z,13.30
2018-05-10T16:58:57.509Z,13.30
2018-05-10T17:01:24.040Z,13.30
2018-05-10T17:03:50.973Z,13.30
2018-05-10T17:06:18.039Z,13.40
2018-05-10T17:08:44.563Z,13.30
2018-05-10T17:11:10.929Z,13.40
2018-05-10T17:13:38.004Z,13.40
2018-05-10T17:16:04.525Z,13.40
2018-05-10T17:18:30.961Z,13.40
2018-05-10T17:20:57.437Z,13.40
2018-05-10T17:23:24.053Z,13.40
2018-05-10T17:25:51.373Z,13.40
2018-05-10T17:28:18.026Z,13.40
2018-05-10T17:30:44.753Z,13.40
2018-05-10T17:33:11.179Z,13.40
2018-05-10T17:35:37.547Z,13.30
2018-05-10T17:38:04.749Z,13.30
2018-05-10T17:40:31.134Z,13.20
2018-05-10T17:42:58.952Z,13.20
2018-05-10T17:45:25.927Z,13.20
2018-05-10T17:47:52.390Z,13.20
2018-05-10T17:50:19.596Z,13.20
2018-05-10T17:52:46.054Z,13.20
2018-05-10T17:55:13.607Z,13.20
2018-05-10T17:57:40.429Z,13.20
2018-05-10T18:00:06.838Z,13.20
2018-05-10T18:02:33.902Z,13.20
2018-05-10T18:05:03.802Z,13.20
2018-05-10T18:07:30.819Z,13.20
2018-05-10T18:09:57.572Z,13.20
2018-05-10T18:12:24.136Z,13.10
2018-05-10T18:14:50.872Z,13.20
2018-05-10T18:17:17.261Z,13.20
2018-05-10T18:19:43.661Z,13.20
2018-05-10T18:22:10.034Z,13.30
2018-05-10T18:24:36.450Z,13.30
2018-05-10T18:27:02.997Z,13.30
2018-05-10T18:29:29.348Z,13.30
2018-05-10T18:31:55.863Z,13.30
2018-05-10T18:34:22.288Z,13.20
2018-05-10T18:36:48.836Z,13.20
2018-05-10T18:39:15.392Z,13.20
2018-05-10T18:41:41.829Z,13.20
2018-05-10T18:44:08.181Z,13.20
2018-05-10T18:46:34.895Z,13.20
2018-05-10T18:49:01.545Z,13.20
2018-05-10T18:51:28.130Z,13.20
2018-05-10T18:53:54.528Z,13.20
2018-05-10T18:56:20.876Z,13.30
2018-05-10T18:58:48.019Z,13.30
2018-05-10T19:01:15.261Z,13.30
2018-05-10T19:03:41.712Z,13.30
2018-05-10T19:06:09.018Z,13.30
2018-05-10T19:08:35.385Z,13.30
2018-05-10T19:11:01.933Z,13.30
2018-05-10T19:13:29.592Z,13.20
2018-05-10T19:15:56.759Z,13.10
2018-05-10T19:18:23.135Z,13.10
2018-05-10T19:20:49.583Z,13.10
2018-05-10T19:23:16.200Z,13.10
2018-05-10T19:25:42.689Z,13.00
2018-05-10T19:28:09.072Z,13.00
2018-05-10T19:30:35.446Z,12.90
2018-05-10T19:33:02.336Z,12.80
2018-05-10T19:35:28.781Z,12.80
2018-05-10T19:37:55.170Z,12.80
2018-05-10T19:40:21.525Z,12.80
2018-05-10T19:42:48.163Z,12.80
2018-05-10T19:45:14.620Z,12.70
2018-05-10T19:47:41.813Z,12.70
2018-05-10T19:50:08.337Z,12.60
2018-05-10T19:52:35.528Z,12.60
2018-05-10T19:55:02.130Z,12.60
2018-05-10T19:57:28.631Z,12.60
2018-05-10T19:59:55.709Z,12.50
2018-05-10T20:02:22.490Z,12.50
2018-05-10T20:04:49.221Z,12.50
2018-05-10T20:07:15.662Z,12.50
2018-05-10T20:09:42.629Z,12.50
2018-05-10T20:12:09.316Z,12.50
2018-05-10T20:14:35.736Z,12.40
2018-05-10T20:17:02.160Z,12.40
2018-05-10T20:19:30.894Z,12.20
2018-05-10T20:21:57.543Z,12.20
2018-05-10T20:24:24.395Z,12.20
2018-05-10T20:26:51.022Z,12.20
2018-05-10T20:29:17.545Z,12.20
2018-05-10T20:31:44.299Z,12.20
2018-05-10T20:34:12.980Z,12.20
2018-05-10T20:36:41.831Z,12.20
2018-05-10T20:39:08.400Z,12.20
2018-05-10T20:41:36.914Z,12.10
2018-05-10T20:44:04.361Z,12.00
2018-05-10T20:46:31.581Z,12.00
2018-05-10T20:48:58.249Z,12.00
2018-05-10T20:51:26.516Z,11.90
2018-05-10T20:53:53.732Z,11.90
2018-05-10T20:56:20.323Z,11.80
2018-05-10T20:58:46.764Z,11.80
2018-05-10T21:01:13.351Z,11.70
2018-05-10T21:03:40.664Z,11.70
2018-05-10T21:06:07.282Z,11.60
2018-05-10T21:08:33.699Z,11.60
2018-05-10T21:11:01.143Z,11.60
2018-05-10T21:13:29.189Z,11.60
2018-05-10T21:15:55.726Z,11.50
2018-05-10T21:18:22.140Z,11.50
2018-05-10T21:20:48.606Z,11.50
2018-05-10T21:23:15.435Z,11.40
2018-05-10T21:25:42.520Z,11.30
2018-05-10T21:28:09.881Z,11.30
2018-05-10T21:30:36.339Z,11.30
2018-05-10T21:33:03.711Z,11.30
2018-05-10T21:35:30.388Z,11.20
2018-05-10T21:37:57.673Z,11.30
2018-05-10T21:40:24.252Z,11.20
2018-05-10T21:42:50.678Z,11.30
2018-05-10T21:45:16.981Z,11.30
2018-05-10T21:47:43.513Z,11.20
2018-05-10T21:50:09.976Z,11.20
2018-05-10T21:52:36.626Z,11.20
2018-05-10T21:55:03.649Z,11.10
2018-05-10T21:57:30.234Z,11.10
2018-05-10T21:59:57.357Z,11.00
2018-05-10T22:02:23.981Z,11.00
2018-05-10T22:04:50.303Z,11.00
2018-05-10T22:07:16.836Z,11.00
2018-05-10T22:09:43.236Z,11.00
2018-05-10T22:12:10.798Z,11.00
2018-05-10T22:14:37.149Z,11.00
2018-05-10T22:17:03.506Z,11.00
2018-05-10T22:19:29.919Z,11.00
2018-05-10T22:21:56.445Z,11.00
2018-05-10T22:24:22.840Z,10.90
2018-05-10T22:26:49.423Z,11.00
2018-05-10T22:29:15.842Z,11.00
2018-05-10T22:31:42.197Z,10.90
2018-05-10T22:34:08.555Z,10.90
2018-05-10T22:36:36.694Z,10.90
2018-05-10T22:39:04.974Z,10.90
2018-05-10T22:41:31.309Z,10.90
2018-05-10T22:43:57.710Z,10.90
2018-05-10T22:46:24.049Z,10.90
2018-05-10T22:48:50.384Z,10.90
2018-05-10T22:51:17.121Z,11.00
2018-05-10T22:53:43.497Z,11.00
2018-05-10T22:56:10.543Z,10.90
2018-05-10T22:58:37.668Z,10.90
2018-05-10T23:01:04.075Z,10.90
2018-05-10T23:03:30.449Z,10.90
2018-05-10T23:05:58.614Z,10.90
2018-05-10T23:08:25.740Z,10.90
2018-05-10T23:10:52.087Z,10.90
2018-05-10T23:13:19.403Z,10.90
2018-05-10T23:15:45.702Z,10.80
2018-05-10T23:18:12.444Z,10.90
2018-05-10T23:20:38.826Z,10.80
2018-05-10T23:23:05.365Z,10.80
2018-05-10T23:25:32.623Z,10.80
2018-05-10T23:27:59.013Z,10.80
2018-05-10T23:30:25.533Z,10.80
2018-05-10T23:32:51.908Z,10.70
2018-05-10T23:35:18.240Z,10.70
2018-05-10T23:37:44.560Z,10.70
2018-05-10T23:40:11.034Z,10.70
2018-05-10T23:42:37.520Z,10.70
2018-05-10T23:45:03.843Z,10.70
2018-05-10T23:47:30.148Z,10.70
2018-05-10T23:49:56.560Z,10.60
2018-05-10T23:52:22.955Z,10.60
2018-05-10T23:54:49.344Z,10.60
2018-05-10T23:57:15.733Z,10.50
2018-05-10T23:59:42.952Z,10.50
